Sacramento, CA

9:39 AM PDT on June 02, 2015 (GMT -0700)
McClellan | | Change Station
CLOSE
Current Station
Airport
Location: Sacramento / Mc Clellan,
Elevation: 75 ft
Nearby Weather Stations

Elev 75 ft 38.67 °N, 121.40 °W | Updated 24 minutes ago

Partly Cloudy
Partly Cloudy
64 °F
Feels Like 64 °F
N
6
Wind Variable Wind from South

Today
High -- | Low -- °F
--% Chance of Precip.
Yesterday
High -- | Low -- °F
Precip. -- in
5:43 AM 8:25 PM
Full, 100% visible
Pressure 30.05 in
Visibility 10.0 miles
Clouds Clear
Dew Point 54 °F
Humidity 68%
Rainfall 0.00 in
Snow Depth Not available.
UV 5 out of 12
Pollen 7.00 out of 12
Air Quality Not available.
Flu Activity Sporadic
METAR KMCC 021615Z AUTO 17005KT 10SM CLR 18/12 A3005 RMK AO2

More Conditions Fewer Conditions

Pressure 30.05 in
Visibility 10.0 miles
Clouds Clear
Dew Point 54 °F
Humidity 68%
Rainfall 0.00 in
Snow Depth Not available.
UV 5 out of 12
Pollen 7.00 out of 12
Air Quality Not available.
Flu Activity Sporadic
METAR KMCC 021615Z AUTO 17005KT 10SM CLR 18/12 A3005 RMK AO2

More Conditions Fewer Conditions

10-Day Weather Forecast

Almanac

Astronomy

Jun. 02, 2015 Rise Set
Actual Time
Civil Twilight
Nautical Twilight
Astronomical Twilight
Moon
Length of Visible Light
Length of Day
Tomorrow will be .
, % of the Moon is Illuminated

Today's Extremes

State Highs State Lows

Community

WunderPhotos

Upload Photos

1,825,976 photos uploaded!

WunderBlogs® & News

Nearby

Air Quality

  Air Quality AQ Index Pollutant
Not available.

Snow Depth

Station Depth Elevation

Earthquake Activity

City Distance Mag. Time & Date
Minimum magnitude displayed is 2.5.

Coastal Water Temperatures

Place Temperature

Stations

Nearby Weather Stations

Station Location Temp. Windchill Dew Point Humidity Wind Precip. Elev Updated Type